createdAt,value
2018-05-06T00:01:32.867Z,2.8
2018-05-06T00:11:26.552Z,2.6
2018-05-06T00:21:26.755Z,2.7
2018-05-06T00:31:27.493Z,3.0
2018-05-06T00:41:27.284Z,2.8
2018-05-06T00:51:26.344Z,2.6
2018-05-06T01:01:26.216Z,2.8
2018-05-06T01:11:27.623Z,2.9
2018-05-06T01:21:26.369Z,3.1
2018-05-06T01:31:26.702Z,2.7
2018-05-06T01:41:26.350Z,2.4
2018-05-06T01:51:26.088Z,3.2
2018-05-06T02:01:26.630Z,2.7
2018-05-06T02:11:27.937Z,3.2
2018-05-06T02:21:26.088Z,3.2
2018-05-06T02:31:26.709Z,3.0
2018-05-06T02:41:26.386Z,3.1
2018-05-06T02:51:27.714Z,2.7
2018-05-06T03:01:27.192Z,3.2
2018-05-06T03:11:25.985Z,2.8
2018-05-06T03:21:26.743Z,3.1
2018-05-06T03:31:28.427Z,3.2
2018-05-06T03:41:26.140Z,3.2
2018-05-06T03:51:26.163Z,3.4
2018-05-06T04:01:26.478Z,3.1
2018-05-06T04:11:26.146Z,2.9
2018-05-06T04:21:26.090Z,3.5
2018-05-06T04:31:26.950Z,3.5
2018-05-06T04:41:26.901Z,3.2
2018-05-06T04:51:26.124Z,3.4
2018-05-06T05:01:25.781Z,4.1
2018-05-06T05:11:26.708Z,3.5
2018-05-06T05:21:27.296Z,3.4
2018-05-06T05:31:26.394Z,3.4
2018-05-06T05:41:26.397Z,3.9
2018-05-06T05:51:26.626Z,3.1
2018-05-06T06:01:27.660Z,3.1
2018-05-06T06:11:27.018Z,3.5
2018-05-06T06:21:26.024Z,3.0
2018-05-06T06:31:26.997Z,3.2
2018-05-06T06:41:26.964Z,2.8
2018-05-06T06:51:26.984Z,3.5
2018-05-06T07:01:27.331Z,3.2
2018-05-06T07:11:26.201Z,2.6
2018-05-06T07:21:26.585Z,2.5
2018-05-06T07:31:26.819Z,2.4
2018-05-06T07:41:27.415Z,3.1
2018-05-06T07:51:26.329Z,2.8
2018-05-06T08:01:26.827Z,2.7
2018-05-06T08:11:25.850Z,2.0
2018-05-06T08:21:27.449Z,2.3
2018-05-06T08:31:26.858Z,2.2
2018-05-06T08:41:25.619Z,1.9
2018-05-06T08:51:25.595Z,1.7
2018-05-06T09:01:27.088Z,2.0
2018-05-06T09:11:26.170Z,1.3
2018-05-06T09:21:28.949Z,1.7
2018-05-06T09:31:27.260Z,1.6
2018-05-06T09:41:25.111Z,1.8
2018-05-06T09:51:26.828Z,1.4
2018-05-06T10:01:25.570Z,1.3
2018-05-06T10:11:25.539Z,1.8
2018-05-06T10:21:26.600Z,1.4
2018-05-06T10:31:27.375Z,1.4
2018-05-06T10:41:26.385Z,1.5
2018-05-06T10:51:25.422Z,1.6
2018-05-06T11:01:27.064Z,1.8
2018-05-06T11:11:26.841Z,1.9
2018-05-06T11:21:26.160Z,1.8
2018-05-06T11:31:24.986Z,1.9
2018-05-06T11:41:26.732Z,1.6
2018-05-06T11:51:26.357Z,2.0
2018-05-06T12:01:26.164Z,1.7
2018-05-06T12:11:26.046Z,1.6
2018-05-06T12:21:25.089Z,1.7
2018-05-06T12:31:25.063Z,1.6
2018-05-06T12:41:26.456Z,1.8
2018-05-06T12:51:26.283Z,1.9
2018-05-06T13:01:25.593Z,1.9
2018-05-06T13:11:25.897Z,1.5
2018-05-06T13:21:26.619Z,1.5
2018-05-06T13:31:26.288Z,1.7
2018-05-06T13:41:25.881Z,1.6
2018-05-06T13:51:26.403Z,1.6
2018-05-06T14:01:25.491Z,1.4
2018-05-06T14:11:25.846Z,1.7
2018-05-06T14:21:25.851Z,1.3
2018-05-06T14:31:26.365Z,1.9
2018-05-06T14:41:25.868Z,1.4
2018-05-06T14:51:24.859Z,1.3
2018-05-06T15:01:25.718Z,1.2
2018-05-06T15:11:27.215Z,1.5
2018-05-06T15:21:25.912Z,1.1
2018-05-06T15:31:25.853Z,1.6
2018-05-06T15:41:27.029Z,1.6
2018-05-06T15:51:24.935Z,1.2
2018-05-06T16:01:25.880Z,1.3
2018-05-06T16:11:26.053Z,1.4
2018-05-06T16:21:25.146Z,1.3
2018-05-06T16:31:25.062Z,1.3
2018-05-06T16:41:25.920Z,1.4
2018-05-06T16:51:25.740Z,1.3
2018-05-06T17:01:25.652Z,2.3
2018-05-06T17:11:25.427Z,1.7
2018-05-06T17:21:26.860Z,1.8
2018-05-06T17:31:25.952Z,1.5
2018-05-06T17:41:37.495Z,1.4
2018-05-06T17:51:25.300Z,1.8
2018-05-06T18:01:28.942Z,2.1
2018-05-06T18:11:28.494Z,2.1
2018-05-06T18:21:26.067Z,1.8
2018-05-06T18:31:26.859Z,2.0
2018-05-06T18:41:26.916Z,2.3
2018-05-06T18:51:25.552Z,2.3
2018-05-06T19:01:25.438Z,2.1
2018-05-06T19:11:26.285Z,2.2
2018-05-06T19:21:28.733Z,2.2
2018-05-06T19:31:28.157Z,2.5
2018-05-06T19:41:26.649Z,2.3
2018-05-06T19:51:26.916Z,2.0
2018-05-06T20:01:27.058Z,2.4
2018-05-06T20:11:32.964Z,2.4
2018-05-06T20:21:28.234Z,2.9
2018-05-06T20:31:26.836Z,2.3
2018-05-06T20:41:26.123Z,2.2
2018-05-06T20:51:26.852Z,3.1
2018-05-06T21:01:26.568Z,2.5
2018-05-06T21:11:31.897Z,2.8
2018-05-06T21:21:33.352Z,2.8
2018-05-06T21:31:28.362Z,2.3
2018-05-06T21:41:32.645Z,2.4
2018-05-06T21:51:25.394Z,2.3
2018-05-06T22:01:26.337Z,2.5
2018-05-06T22:11:27.533Z,2.4
2018-05-06T22:21:26.548Z,2.6
2018-05-06T22:31:26.683Z,2.9
2018-05-06T22:41:26.745Z,3.4
2018-05-06T22:51:26.264Z,2.7
2018-05-06T23:01:26.438Z,2.7
2018-05-06T23:11:26.749Z,2.4
2018-05-06T23:21:27.175Z,2.5
2018-05-06T23:31:26.123Z,2.6
2018-05-06T23:41:29.184Z,2.4
2018-05-06T23:51:26.788Z,3.2
